Falmouth, Michigan
Current Conditions -  °F | °C
As of 12:14 AM on Saturday 25 Oct 2014 (Local Time) from KCAD Reporting Station
Overcast Overcast  
Wind Chill: 43°   Ceiling: 500
Heat Index: 46°   Visibility: 7mi
Dew Point: 46°   Wind: 6mph
Humidity: 100%   Direction: 200°SSW
Pressure: 29.88"   Gusts: NA
Location:  44.24°N, 85.09°W
Report Text: KCAD 250414Z AUTO 20005KT 7SM OVC005 07/07 A2988 RMK AO2 T00760076
Loading
Personal Weather Stations






























Interactive Weather Map
Tropical Storm Tracking
New forecast layout! Learn more

10-Day Weather Forecast

Advertisements
Track Severe Weather on mobile